sensor_id;sensor_type;location;lat;lon;timestamp;temperature;humidity
45435;DHT22;31183;47.404;8.500;2024-02-16T00:01:42;10.60;99.90
45435;DHT22;31183;47.404;8.500;2024-02-16T00:04:08;10.50;99.90
45435;DHT22;31183;47.404;8.500;2024-02-16T00:06:35;10.50;99.90
45435;DHT22;31183;47.404;8.500;2024-02-16T00:09:02;10.50;99.90
45435;DHT22;31183;47.404;8.500;2024-02-16T00:11:29;10.60;99.90
45435;DHT22;31183;47.404;8.500;2024-02-16T00:13:56;10.60;99.90
45435;DHT22;31183;47.404;8.500;2024-02-16T00:16:23;10.60;99.90
45435;DHT22;31183;47.404;8.500;2024-02-16T00:18:49;10.70;99.90
45435;DHT22;31183;47.404;8.500;2024-02-16T00:21:16;10.80;99.90
45435;DHT22;31183;47.404;8.500;2024-02-16T00:23:45;10.80;99.90
45435;DHT22;31183;47.404;8.500;2024-02-16T00:26:12;10.80;99.90
45435;DHT22;31183;47.404;8.500;2024-02-16T00:28:38;10.90;99.90
45435;DHT22;31183;47.404;8.500;2024-02-16T00:31:05;10.80;99.90
45435;DHT22;31183;47.404;8.500;2024-02-16T00:33:32;10.80;99.90
45435;DHT22;31183;47.404;8.500;2024-02-16T00:36:00;10.80;99.90
45435;DHT22;31183;47.404;8.500;2024-02-16T00:38:27;10.80;99.90
45435;DHT22;31183;47.404;8.500;2024-02-16T00:40:53;10.80;99.90
45435;DHT22;31183;47.404;8.500;2024-02-16T00:43:20;10.80;99.90
45435;DHT22;31183;47.404;8.500;2024-02-16T00:45:47;10.90;99.90
45435;DHT22;31183;47.404;8.500;2024-02-16T00:48:15;10.90;99.90
45435;DHT22;31183;47.404;8.500;2024-02-16T00:50:42;10.80;99.90
45435;DHT22;31183;47.404;8.500;2024-02-16T00:53:10;10.70;99.90
45435;DHT22;31183;47.404;8.500;2024-02-16T00:55:37;10.70;99.90
45435;DHT22;31183;47.404;8.500;2024-02-16T00:58:04;10.80;99.90
45435;DHT22;31183;47.404;8.500;2024-02-16T01:00:31;10.80;99.90
45435;DHT22;31183;47.404;8.500;2024-02-16T01:02:58;10.80;99.90
45435;DHT22;31183;47.404;8.500;2024-02-16T01:05:25;10.80;99.90
45435;DHT22;31183;47.404;8.500;2024-02-16T01:07:51;10.80;99.90
45435;DHT22;31183;47.404;8.500;2024-02-16T01:10:19;10.80;99.90
45435;DHT22;31183;47.404;8.500;2024-02-16T01:12:45;10.70;99.90
45435;DHT22;31183;47.404;8.500;2024-02-16T01:15:12;10.60;99.90
45435;DHT22;31183;47.404;8.500;2024-02-16T01:17:39;10.50;99.90
45435;DHT22;31183;47.404;8.500;2024-02-16T01:20:07;10.40;99.90
45435;DHT22;31183;47.404;8.500;2024-02-16T01:22:38;10.40;99.90
45435;DHT22;31183;47.404;8.500;2024-02-16T01:25:06;10.30;99.90
45435;DHT22;31183;47.404;8.500;2024-02-16T01:27:34;10.20;99.90
45435;DHT22;31183;47.404;8.500;2024-02-16T01:30:02;10.20;99.90
45435;DHT22;31183;47.404;8.500;2024-02-16T01:32:29;10.20;99.90
45435;DHT22;31183;47.404;8.500;2024-02-16T01:34:56;10.10;99.90
45435;DHT22;31183;47.404;8.500;2024-02-16T01:37:23;10.10;99.90
45435;DHT22;31183;47.404;8.500;2024-02-16T01:39:50;10.00;99.90
45435;DHT22;31183;47.404;8.500;2024-02-16T01:42:17;10.00;99.90
45435;DHT22;31183;47.404;8.500;2024-02-16T01:44:43;10.00;99.90
45435;DHT22;31183;47.404;8.500;2024-02-16T01:47:10;10.00;99.90
45435;DHT22;31183;47.404;8.500;2024-02-16T01:49:37;10.10;99.90
45435;DHT22;31183;47.404;8.500;2024-02-16T01:52:04;10.00;99.90
45435;DHT22;31183;47.404;8.500;2024-02-16T01:54:31;10.10;99.90
45435;DHT22;31183;47.404;8.500;2024-02-16T01:56:58;10.10;99.90
45435;DHT22;31183;47.404;8.500;2024-02-16T01:59:26;10.10;99.90
45435;DHT22;31183;47.404;8.500;2024-02-16T02:01:52;10.10;99.90
45435;DHT22;31183;47.404;8.500;2024-02-16T02:04:19;10.20;99.90
45435;DHT22;31183;47.404;8.500;2024-02-16T02:06:46;10.20;99.90
45435;DHT22;31183;47.404;8.500;2024-02-16T02:09:13;10.20;99.90
45435;DHT22;31183;47.404;8.500;2024-02-16T02:11:40;10.20;99.90
45435;DHT22;31183;47.404;8.500;2024-02-16T02:14:06;10.20;99.90
45435;DHT22;31183;47.404;8.500;2024-02-16T02:16:33;10.20;99.90
45435;DHT22;31183;47.404;8.500;2024-02-16T02:19:13;10.20;99.90
45435;DHT22;31183;47.404;8.500;2024-02-16T02:21:40;10.20;99.90
45435;DHT22;31183;47.404;8.500;2024-02-16T02:24:07;10.30;99.90
45435;DHT22;31183;47.404;8.500;2024-02-16T02:26:35;10.30;99.90
45435;DHT22;31183;47.404;8.500;2024-02-16T02:29:02;10.30;99.90
45435;DHT22;31183;47.404;8.500;2024-02-16T02:31:29;10.30;99.90
45435;DHT22;31183;47.404;8.500;2024-02-16T02:33:55;10.20;99.90
45435;DHT22;31183;47.404;8.500;2024-02-16T02:36:23;10.20;99.90
45435;DHT22;31183;47.404;8.500;2024-02-16T02:38:50;10.20;99.90
45435;DHT22;31183;47.404;8.500;2024-02-16T02:41:16;10.20;99.90
45435;DHT22;31183;47.404;8.500;2024-02-16T02:43:45;10.20;99.90
45435;DHT22;31183;47.404;8.500;2024-02-16T02:46:16;10.10;99.90
45435;DHT22;31183;47.404;8.500;2024-02-16T02:48:44;10.10;99.90
45435;DHT22;31183;47.404;8.500;2024-02-16T02:51:17;10.00;99.90
45435;DHT22;31183;47.404;8.500;2024-02-16T02:53:44;10.00;99.90
45435;DHT22;31183;47.404;8.500;2024-02-16T02:56:10;10.00;99.90
45435;DHT22;31183;47.404;8.500;2024-02-16T02:58:39;10.00;99.90
45435;DHT22;31183;47.404;8.500;2024-02-16T03:01:06;10.00;99.90
45435;DHT22;31183;47.404;8.500;2024-02-16T03:03:35;10.00;99.90
45435;DHT22;31183;47.404;8.500;2024-02-16T03:06:02;10.00;99.90
45435;DHT22;31183;47.404;8.500;2024-02-16T03:08:30;10.00;99.90
45435;DHT22;31183;47.404;8.500;2024-02-16T03:10:56;10.10;99.90
45435;DHT22;31183;47.404;8.500;2024-02-16T03:13:27;10.10;99.90
45435;DHT22;31183;47.404;8.500;2024-02-16T03:15:53;10.10;99.90
45435;DHT22;31183;47.404;8.500;2024-02-16T03:18:20;10.00;99.90
45435;DHT22;31183;47.404;8.500;2024-02-16T03:20:47;10.10;99.90
45435;DHT22;31183;47.404;8.500;2024-02-16T03:23:16;10.10;99.90
45435;DHT22;31183;47.404;8.500;2024-02-16T03:25:43;10.10;99.90
45435;DHT22;31183;47.404;8.500;2024-02-16T03:28:13;10.10;99.90
45435;DHT22;31183;47.404;8.500;2024-02-16T03:30:40;10.10;99.90
45435;DHT22;31183;47.404;8.500;2024-02-16T03:33:08;10.10;99.90
45435;DHT22;31183;47.404;8.500;2024-02-16T03:35:36;10.10;99.90
45435;DHT22;31183;47.404;8.500;2024-02-16T03:38:04;10.20;99.90
45435;DHT22;31183;47.404;8.500;2024-02-16T03:40:30;10.20;99.90
45435;DHT22;31183;47.404;8.500;2024-02-16T03:42:57;10.20;99.90
45435;DHT22;31183;47.404;8.500;2024-02-16T03:45:24;10.20;99.90
45435;DHT22;31183;47.404;8.500;2024-02-16T03:47:51;10.20;99.90
45435;DHT22;31183;47.404;8.500;2024-02-16T03:50:21;10.20;99.90
45435;DHT22;31183;47.404;8.500;2024-02-16T03:52:49;10.20;99.90
45435;DHT22;31183;47.404;8.500;2024-02-16T03:55:15;10.20;99.90
45435;DHT22;31183;47.404;8.500;2024-02-16T03:57:42;10.20;99.90
45435;DHT22;31183;47.404;8.500;2024-02-16T04:00:09;10.10;99.90
45435;DHT22;31183;47.404;8.500;2024-02-16T04:02:36;10.10;99.90
45435;DHT22;31183;47.404;8.500;2024-02-16T04:05:03;10.10;99.90
45435;DHT22;31183;47.404;8.500;2024-02-16T04:07:30;10.10;99.90
45435;DHT22;31183;47.404;8.500;2024-02-16T04:09:57;10.10;99.90
45435;DHT22;31183;47.404;8.500;2024-02-16T04:12:24;10.10;99.90
45435;DHT22;31183;47.404;8.500;2024-02-16T04:14:51;10.10;99.90
45435;DHT22;31183;47.404;8.500;2024-02-16T04:17:17;10.10;99.90
45435;DHT22;31183;47.404;8.500;2024-02-16T04:19:45;10.10;99.90
45435;DHT22;31183;47.404;8.500;2024-02-16T04:22:13;10.10;99.90
45435;DHT22;31183;47.404;8.500;2024-02-16T04:24:39;10.10;99.90
45435;DHT22;31183;47.404;8.500;2024-02-16T04:27:06;10.00;99.90
45435;DHT22;31183;47.404;8.500;2024-02-16T04:29:34;10.00;99.90
45435;DHT22;31183;47.404;8.500;2024-02-16T04:32:01;10.10;99.90
45435;DHT22;31183;47.404;8.500;2024-02-16T04:34:28;10.10;99.90
45435;DHT22;31183;47.404;8.500;2024-02-16T04:36:55;10.10;99.90
45435;DHT22;31183;47.404;8.500;2024-02-16T04:39:22;10.10;99.90
45435;DHT22;31183;47.404;8.500;2024-02-16T04:41:49;10.00;99.90
45435;DHT22;31183;47.404;8.500;2024-02-16T04:44:18;10.00;99.90
45435;DHT22;31183;47.404;8.500;2024-02-16T04:46:45;10.00;99.90
45435;DHT22;31183;47.404;8.500;2024-02-16T04:49:11;10.10;99.90
45435;DHT22;31183;47.404;8.500;2024-02-16T04:51:39;10.00;99.90
45435;DHT22;31183;47.404;8.500;2024-02-16T04:54:06;10.00;99.90
45435;DHT22;31183;47.404;8.500;2024-02-16T04:56:33;9.90;99.90
45435;DHT22;31183;47.404;8.500;2024-02-16T04:59:00;9.90;99.90
45435;DHT22;31183;47.404;8.500;2024-02-16T05:01:27;10.00;99.90
45435;DHT22;31183;47.404;8.500;2024-02-16T05:03:55;10.00;99.90
45435;DHT22;31183;47.404;8.500;2024-02-16T05:06:23;10.00;99.90
45435;DHT22;31183;47.404;8.500;2024-02-16T05:08:50;10.00;99.90
45435;DHT22;31183;47.404;8.500;2024-02-16T05:11:16;10.00;99.90
45435;DHT22;31183;47.404;8.500;2024-02-16T05:13:43;10.00;99.90
45435;DHT22;31183;47.404;8.500;2024-02-16T05:16:11;9.90;99.90
45435;DHT22;31183;47.404;8.500;2024-02-16T05:18:38;9.80;99.90
45435;DHT22;31183;47.404;8.500;2024-02-16T05:21:06;9.80;99.90
45435;DHT22;31183;47.404;8.500;2024-02-16T05:23:32;9.90;99.90
45435;DHT22;31183;47.404;8.500;2024-02-16T05:25:59;9.90;99.90
45435;DHT22;31183;47.404;8.500;2024-02-16T05:28:26;10.00;99.90
45435;DHT22;31183;47.404;8.500;2024-02-16T05:30:53;10.10;99.90
45435;DHT22;31183;47.404;8.500;2024-02-16T05:33:20;10.20;99.90
45435;DHT22;31183;47.404;8.500;2024-02-16T05:35:46;10.30;99.90
45435;DHT22;31183;47.404;8.500;2024-02-16T05:38:18;10.20;99.90
45435;DHT22;31183;47.404;8.500;2024-02-16T05:40:58;10.20;99.90
45435;DHT22;31183;47.404;8.500;2024-02-16T05:43:25;10.30;99.90
45435;DHT22;31183;47.404;8.500;2024-02-16T05:45:52;10.30;99.90
45435;DHT22;31183;47.404;8.500;2024-02-16T05:48:18;10.40;99.90
45435;DHT22;31183;47.404;8.500;2024-02-16T05:50:46;10.40;99.90
45435;DHT22;31183;47.404;8.500;2024-02-16T05:53:13;10.50;99.90
45435;DHT22;31183;47.404;8.500;2024-02-16T05:55:40;10.50;99.90
45435;DHT22;31183;47.404;8.500;2024-02-16T05:58:06;10.50;99.90
45435;DHT22;31183;47.404;8.500;2024-02-16T06:00:34;10.50;99.90
45435;DHT22;31183;47.404;8.500;2024-02-16T06:03:02;10.50;99.90
45435;DHT22;31183;47.404;8.500;2024-02-16T06:05:29;10.50;99.90
45435;DHT22;31183;47.404;8.500;2024-02-16T06:07:56;10.50;99.90
45435;DHT22;31183;47.404;8.500;2024-02-16T06:10:23;10.50;99.90
45435;DHT22;31183;47.404;8.500;2024-02-16T06:12:50;10.50;99.90
45435;DHT22;31183;47.404;8.500;2024-02-16T06:15:17;10.50;99.90
45435;DHT22;31183;47.404;8.500;2024-02-16T06:17:44;10.60;99.90
45435;DHT22;31183;47.404;8.500;2024-02-16T06:20:11;10.60;99.90
45435;DHT22;31183;47.404;8.500;2024-02-16T06:22:38;10.60;99.90
45435;DHT22;31183;47.404;8.500;2024-02-16T06:25:05;10.60;99.90
45435;DHT22;31183;47.404;8.500;2024-02-16T06:27:32;10.50;99.90
45435;DHT22;31183;47.404;8.500;2024-02-16T06:29:59;10.50;99.90
45435;DHT22;31183;47.404;8.500;2024-02-16T06:32:26;10.40;99.90
45435;DHT22;31183;47.404;8.500;2024-02-16T06:34:53;10.40;99.90
45435;DHT22;31183;47.404;8.500;2024-02-16T06:37:20;10.40;99.90
45435;DHT22;31183;47.404;8.500;2024-02-16T06:39:46;10.40;99.90
45435;DHT22;31183;47.404;8.500;2024-02-16T06:42:13;10.40;99.90
45435;DHT22;31183;47.404;8.500;2024-02-16T06:44:40;10.40;99.90
45435;DHT22;31183;47.404;8.500;2024-02-16T06:47:07;10.30;99.90
45435;DHT22;31183;47.404;8.500;2024-02-16T06:49:34;10.30;99.90
45435;DHT22;31183;47.404;8.500;2024-02-16T06:52:00;10.30;99.90
45435;DHT22;31183;47.404;8.500;2024-02-16T06:54:27;10.20;99.90
45435;DHT22;31183;47.404;8.500;2024-02-16T06:56:54;10.30;99.90
45435;DHT22;31183;47.404;8.500;2024-02-16T06:59:20;10.30;99.90
45435;DHT22;31183;47.404;8.500;2024-02-16T07:01:47;10.40;99.90
45435;DHT22;31183;47.404;8.500;2024-02-16T07:04:14;10.40;99.90
45435;DHT22;31183;47.404;8.500;2024-02-16T07:06:41;10.40;99.90
45435;DHT22;31183;47.404;8.500;2024-02-16T07:09:08;10.40;99.90
45435;DHT22;31183;47.404;8.500;2024-02-16T07:11:35;10.40;99.90
45435;DHT22;31183;47.404;8.500;2024-02-16T07:14:02;10.50;99.90
45435;DHT22;31183;47.404;8.500;2024-02-16T07:16:29;10.50;99.90
45435;DHT22;31183;47.404;8.500;2024-02-16T07:18:56;10.60;99.90
45435;DHT22;31183;47.404;8.500;2024-02-16T07:21:23;10.60;99.90
45435;DHT22;31183;47.404;8.500;2024-02-16T07:23:50;10.60;99.90
45435;DHT22;31183;47.404;8.500;2024-02-16T07:26:17;10.70;99.90
45435;DHT22;31183;47.404;8.500;2024-02-16T07:28:44;10.70;99.90
45435;DHT22;31183;47.404;8.500;2024-02-16T07:31:11;10.80;99.90
45435;DHT22;31183;47.404;8.500;2024-02-16T07:33:38;10.90;99.90
45435;DHT22;31183;47.404;8.500;2024-02-16T07:36:05;10.90;99.90
45435;DHT22;31183;47.404;8.500;2024-02-16T07:38:32;10.90;99.90
45435;DHT22;31183;47.404;8.500;2024-02-16T07:40:58;10.90;99.90
45435;DHT22;31183;47.404;8.500;2024-02-16T07:43:27;11.00;99.90
45435;DHT22;31183;47.404;8.500;2024-02-16T07:45:54;11.00;99.90
45435;DHT22;31183;47.404;8.500;2024-02-16T07:48:21;11.00;99.90
45435;DHT22;31183;47.404;8.500;2024-02-16T07:50:48;10.90;99.90
45435;DHT22;31183;47.404;8.500;2024-02-16T07:53:17;10.90;99.90
45435;DHT22;31183;47.404;8.500;2024-02-16T07:55:43;10.90;99.90
45435;DHT22;31183;47.404;8.500;2024-02-16T07:58:10;11.00;99.90
45435;DHT22;31183;47.404;8.500;2024-02-16T08:00:38;11.00;99.90
45435;DHT22;31183;47.404;8.500;2024-02-16T08:03:05;11.10;99.90
45435;DHT22;31183;47.404;8.500;2024-02-16T08:05:33;11.10;99.90
45435;DHT22;31183;47.404;8.500;2024-02-16T08:07:59;11.20;99.90
45435;DHT22;31183;47.404;8.500;2024-02-16T08:10:26;11.30;99.90
45435;DHT22;31183;47.404;8.500;2024-02-16T08:12:53;11.40;99.90
45435;DHT22;31183;47.404;8.500;2024-02-16T08:15:20;11.50;99.90
45435;DHT22;31183;47.404;8.500;2024-02-16T08:17:50;11.50;99.90
45435;DHT22;31183;47.404;8.500;2024-02-16T08:20:18;11.50;99.90
45435;DHT22;31183;47.404;8.500;2024-02-16T08:22:45;11.60;99.90
45435;DHT22;31183;47.404;8.500;2024-02-16T08:25:11;11.70;99.90
45435;DHT22;31183;47.404;8.500;2024-02-16T08:27:38;11.70;99.90
45435;DHT22;31183;47.404;8.500;2024-02-16T08:30:06;11.80;99.90
45435;DHT22;31183;47.404;8.500;2024-02-16T08:32:33;11.90;99.90
45435;DHT22;31183;47.404;8.500;2024-02-16T08:35:00;12.00;99.90
45435;DHT22;31183;47.404;8.500;2024-02-16T08:37:27;12.00;99.90
45435;DHT22;31183;47.404;8.500;2024-02-16T08:39:53;12.10;99.90
45435;DHT22;31183;47.404;8.500;2024-02-16T08:42:20;12.20;99.90
45435;DHT22;31183;47.404;8.500;2024-02-16T08:44:49;12.20;99.90
45435;DHT22;31183;47.404;8.500;2024-02-16T08:47:16;12.30;99.90
45435;DHT22;31183;47.404;8.500;2024-02-16T08:49:42;12.40;99.90
45435;DHT22;31183;47.404;8.500;2024-02-16T08:52:09;12.40;99.90
45435;DHT22;31183;47.404;8.500;2024-02-16T08:54:36;12.50;99.40
45435;DHT22;31183;47.404;8.500;2024-02-16T08:57:03;12.50;99.60
45435;DHT22;31183;47.404;8.500;2024-02-16T08:59:30;12.50;99.50
45435;DHT22;31183;47.404;8.500;2024-02-16T09:01:57;12.50;99.20
45435;DHT22;31183;47.404;8.500;2024-02-16T09:04:25;12.50;98.90
45435;DHT22;31183;47.404;8.500;2024-02-16T09:06:52;12.60;98.60
45435;DHT22;31183;47.404;8.500;2024-02-16T09:09:20;12.80;98.40
45435;DHT22;31183;47.404;8.500;2024-02-16T09:11:47;12.90;97.90
45435;DHT22;31183;47.404;8.500;2024-02-16T09:14:13;13.10;97.50
45435;DHT22;31183;47.404;8.500;2024-02-16T09:16:40;13.20;98.80
45435;DHT22;31183;47.404;8.500;2024-02-16T09:19:06;13.30;99.40
45435;DHT22;31183;47.404;8.500;2024-02-16T09:21:33;13.40;99.70
45435;DHT22;31183;47.404;8.500;2024-02-16T09:24:00;13.60;99.60
45435;DHT22;31183;47.404;8.500;2024-02-16T09:26:28;13.80;99.20
45435;DHT22;31183;47.404;8.500;2024-02-16T09:29:00;14.10;98.70
45435;DHT22;31183;47.404;8.500;2024-02-16T09:31:27;14.20;98.40
45435;DHT22;31183;47.404;8.500;2024-02-16T09:33:53;14.20;98.40
45435;DHT22;31183;47.404;8.500;2024-02-16T09:36:21;14.10;97.70
45435;DHT22;31183;47.404;8.500;2024-02-16T09:38:48;14.00;98.10
45435;DHT22;31183;47.404;8.500;2024-02-16T09:41:15;14.10;98.20
45435;DHT22;31183;47.404;8.500;2024-02-16T09:43:42;14.10;98.20
45435;DHT22;31183;47.404;8.500;2024-02-16T09:46:09;14.10;98.20
45435;DHT22;31183;47.404;8.500;2024-02-16T09:48:39;14.20;98.00
45435;DHT22;31183;47.404;8.500;2024-02-16T09:51:08;14.30;97.60
45435;DHT22;31183;47.404;8.500;2024-02-16T09:53:35;14.50;97.30
45435;DHT22;31183;47.404;8.500;2024-02-16T09:56:02;14.50;97.00
45435;DHT22;31183;47.404;8.500;2024-02-16T09:58:31;14.40;96.70
45435;DHT22;31183;47.404;8.500;2024-02-16T10:00:57;14.40;96.70
45435;DHT22;31183;47.404;8.500;2024-02-16T10:03:29;14.30;96.80
45435;DHT22;31183;47.404;8.500;2024-02-16T10:06:07;14.30;97.00
45435;DHT22;31183;47.404;8.500;2024-02-16T10:08:47;14.40;96.60
45435;DHT22;31183;47.404;8.500;2024-02-16T10:11:16;14.90;95.10
45435;DHT22;31183;47.404;8.500;2024-02-16T10:14:02;15.20;94.20
45435;DHT22;31183;47.404;8.500;2024-02-16T10:16:30;15.40;93.60
45435;DHT22;31183;47.404;8.500;2024-02-16T10:19:08;15.50;93.70
45435;DHT22;31183;47.404;8.500;2024-02-16T10:21:41;15.50;92.70
45435;DHT22;31183;47.404;8.500;2024-02-16T10:24:09;15.30;92.50
45435;DHT22;31183;47.404;8.500;2024-02-16T10:26:39;15.20;92.40
45435;DHT22;31183;47.404;8.500;2024-02-16T10:29:11;15.20;92.30
45435;DHT22;31183;47.404;8.500;2024-02-16T10:31:38;15.20;91.90
45435;DHT22;31183;47.404;8.500;2024-02-16T10:34:05;15.20;91.90
45435;DHT22;31183;47.404;8.500;2024-02-16T10:36:35;15.20;91.80
45435;DHT22;31183;47.404;8.500;2024-02-16T10:39:03;15.10;91.90
45435;DHT22;31183;47.404;8.500;2024-02-16T10:41:40;15.20;91.60
45435;DHT22;31183;47.404;8.500;2024-02-16T10:44:07;15.30;91.30
45435;DHT22;31183;47.404;8.500;2024-02-16T10:46:34;15.40;91.60
45435;DHT22;31183;47.404;8.500;2024-02-16T10:49:02;15.90;91.60
45435;DHT22;31183;47.404;8.500;2024-02-16T10:51:40;16.50;90.90
45435;DHT22;31183;47.404;8.500;2024-02-16T10:54:10;16.70;89.30
45435;DHT22;31183;47.404;8.500;2024-02-16T10:56:38;16.70;88.60
45435;DHT22;31183;47.404;8.500;2024-02-16T10:59:08;16.80;86.40
45435;DHT22;31183;47.404;8.500;2024-02-16T11:04:07;16.70;85.00
45435;DHT22;31183;47.404;8.500;2024-02-16T11:06:48;16.80;84.60
45435;DHT22;31183;47.404;8.500;2024-02-16T11:09:38;17.40;83.70
45435;DHT22;31183;47.404;8.500;2024-02-16T11:12:06;17.70;83.40
45435;DHT22;31183;47.404;8.500;2024-02-16T11:14:39;17.70;83.50
45435;DHT22;31183;47.404;8.500;2024-02-16T11:17:13;17.70;81.40
45435;DHT22;31183;47.404;8.500;2024-02-16T11:19:44;17.50;81.90
45435;DHT22;31183;47.404;8.500;2024-02-16T11:22:18;17.30;83.80
45435;DHT22;31183;47.404;8.500;2024-02-16T11:24:50;17.00;83.10
45435;DHT22;31183;47.404;8.500;2024-02-16T11:27:23;16.90;84.10
45435;DHT22;31183;47.404;8.500;2024-02-16T11:29:49;16.80;84.30
45435;DHT22;31183;47.404;8.500;2024-02-16T11:32:18;16.90;84.40
45435;DHT22;31183;47.404;8.500;2024-02-16T11:34:45;17.00;85.30
45435;DHT22;31183;47.404;8.500;2024-02-16T11:37:13;17.00;84.50
45435;DHT22;31183;47.404;8.500;2024-02-16T11:39:39;16.90;84.00
45435;DHT22;31183;47.404;8.500;2024-02-16T11:42:12;16.90;83.30
45435;DHT22;31183;47.404;8.500;2024-02-16T11:44:40;16.90;83.30
45435;DHT22;31183;47.404;8.500;2024-02-16T11:47:09;17.00;83.60
45435;DHT22;31183;47.404;8.500;2024-02-16T11:49:39;17.10;84.20
45435;DHT22;31183;47.404;8.500;2024-02-16T11:52:07;17.00;84.40
45435;DHT22;31183;47.404;8.500;2024-02-16T11:54:34;16.90;84.40
45435;DHT22;31183;47.404;8.500;2024-02-16T11:57:04;16.90;84.70
45435;DHT22;31183;47.404;8.500;2024-02-16T11:59:30;16.80;84.70
45435;DHT22;31183;47.404;8.500;2024-02-16T12:01:58;16.80;84.50
45435;DHT22;31183;47.404;8.500;2024-02-16T12:04:27;16.70;85.80
45435;DHT22;31183;47.404;8.500;2024-02-16T12:06:58;16.60;84.50
45435;DHT22;31183;47.404;8.500;2024-02-16T12:09:31;16.50;84.90
45435;DHT22;31183;47.404;8.500;2024-02-16T12:12:02;16.40;85.80
45435;DHT22;31183;47.404;8.500;2024-02-16T12:14:32;16.20;86.10
45435;DHT22;31183;47.404;8.500;2024-02-16T12:16:59;16.00;86.10
45435;DHT22;31183;47.404;8.500;2024-02-16T12:19:26;15.90;88.80
45435;DHT22;31183;47.404;8.500;2024-02-16T12:21:54;15.80;88.70
45435;DHT22;31183;47.404;8.500;2024-02-16T12:24:21;15.80;89.00
45435;DHT22;31183;47.404;8.500;2024-02-16T12:26:49;15.70;89.30
45435;DHT22;31183;47.404;8.500;2024-02-16T12:29:16;15.70;89.50
45435;DHT22;31183;47.404;8.500;2024-02-16T12:31:44;15.60;89.40
45435;DHT22;31183;47.404;8.500;2024-02-16T12:34:11;15.60;89.20
45435;DHT22;31183;47.404;8.500;2024-02-16T12:36:40;15.50;89.50
45435;DHT22;31183;47.404;8.500;2024-02-16T12:39:15;15.50;89.20
45435;DHT22;31183;47.404;8.500;2024-02-16T12:41:42;15.50;90.00
45435;DHT22;31183;47.404;8.500;2024-02-16T12:44:10;15.40;90.10
45435;DHT22;31183;47.404;8.500;2024-02-16T12:46:37;15.40;89.90
45435;DHT22;31183;47.404;8.500;2024-02-16T12:49:05;15.40;89.50
45435;DHT22;31183;47.404;8.500;2024-02-16T12:51:33;15.50;90.00
45435;DHT22;31183;47.404;8.500;2024-02-16T12:54:00;15.50;89.70
45435;DHT22;31183;47.404;8.500;2024-02-16T12:56:30;15.60;90.00
45435;DHT22;31183;47.404;8.500;2024-02-16T12:58:57;15.70;89.70
45435;DHT22;31183;47.404;8.500;2024-02-16T13:01:26;15.70;89.80
45435;DHT22;31183;47.404;8.500;2024-02-16T13:03:53;15.70;89.90
45435;DHT22;31183;47.404;8.500;2024-02-16T13:06:20;15.70;89.90
45435;DHT22;31183;47.404;8.500;2024-02-16T13:08:52;15.70;90.20
45435;DHT22;31183;47.404;8.500;2024-02-16T13:11:20;15.70;90.30
45435;DHT22;31183;47.404;8.500;2024-02-16T13:13:46;15.80;90.50
45435;DHT22;31183;47.404;8.500;2024-02-16T13:16:13;15.90;90.60
45435;DHT22;31183;47.404;8.500;2024-02-16T13:18:40;16.00;90.50
45435;DHT22;31183;47.404;8.500;2024-02-16T13:21:07;16.10;90.50
45435;DHT22;31183;47.404;8.500;2024-02-16T13:23:34;16.10;90.50
45435;DHT22;31183;47.404;8.500;2024-02-16T13:26:01;16.10;90.50
45435;DHT22;31183;47.404;8.500;2024-02-16T13:28:28;16.20;90.70
45435;DHT22;31183;47.404;8.500;2024-02-16T13:30:54;16.20;90.80
45435;DHT22;31183;47.404;8.500;2024-02-16T13:33:21;16.20;90.90
45435;DHT22;31183;47.404;8.500;2024-02-16T13:35:48;16.20;91.00
45435;DHT22;31183;47.404;8.500;2024-02-16T13:38:15;16.20;91.20
45435;DHT22;31183;47.404;8.500;2024-02-16T13:40:42;16.30;91.10
45435;DHT22;31183;47.404;8.500;2024-02-16T13:43:09;16.40;90.90
45435;DHT22;31183;47.404;8.500;2024-02-16T13:45:52;16.50;90.90
45435;DHT22;31183;47.404;8.500;2024-02-16T13:48:20;16.60;90.90
45435;DHT22;31183;47.404;8.500;2024-02-16T13:50:47;16.60;91.10
45435;DHT22;31183;47.404;8.500;2024-02-16T13:53:14;16.60;91.20
45435;DHT22;31183;47.404;8.500;2024-02-16T13:55:46;16.50;91.50
45435;DHT22;31183;47.404;8.500;2024-02-16T13:58:13;16.50;91.60
45435;DHT22;31183;47.404;8.500;2024-02-16T14:00:40;16.50;91.70
45435;DHT22;31183;47.404;8.500;2024-02-16T14:03:09;16.60;92.00
45435;DHT22;31183;47.404;8.500;2024-02-16T14:05:37;16.70;91.80
45435;DHT22;31183;47.404;8.500;2024-02-16T14:08:05;16.80;91.80
45435;DHT22;31183;47.404;8.500;2024-02-16T14:10:35;16.90;91.80
45435;DHT22;31183;47.404;8.500;2024-02-16T14:13:02;16.90;91.80
45435;DHT22;31183;47.404;8.500;2024-02-16T14:15:30;16.90;91.80
45435;DHT22;31183;47.404;8.500;2024-02-16T14:17:59;16.90;91.80
45435;DHT22;31183;47.404;8.500;2024-02-16T14:20:36;16.90;92.10
45435;DHT22;31183;47.404;8.500;2024-02-16T14:23:03;16.80;92.50
45435;DHT22;31183;47.404;8.500;2024-02-16T14:25:30;16.80;92.60
45435;DHT22;31183;47.404;8.500;2024-02-16T14:27:57;16.80;92.70
45435;DHT22;31183;47.404;8.500;2024-02-16T14:30:24;16.80;93.00
45435;DHT22;31183;47.404;8.500;2024-02-16T14:32:51;16.80;92.90
45435;DHT22;31183;47.404;8.500;2024-02-16T14:35:20;16.80;93.10
45435;DHT22;31183;47.404;8.500;2024-02-16T14:37:48;16.70;93.20
45435;DHT22;31183;47.404;8.500;2024-02-16T14:40:16;16.70;93.10
45435;DHT22;31183;47.404;8.500;2024-02-16T14:42:42;16.70;93.30
45435;DHT22;31183;47.404;8.500;2024-02-16T14:45:09;16.70;93.40
45435;DHT22;31183;47.404;8.500;2024-02-16T14:47:45;16.70;93.60
45435;DHT22;31183;47.404;8.500;2024-02-16T14:50:12;16.70;93.70
45435;DHT22;31183;47.404;8.500;2024-02-16T14:52:41;16.70;93.60
45435;DHT22;31183;47.404;8.500;2024-02-16T14:55:07;16.60;93.70
45435;DHT22;31183;47.404;8.500;2024-02-16T14:57:40;16.60;93.80
45435;DHT22;31183;47.404;8.500;2024-02-16T15:00:08;16.60;93.90
45435;DHT22;31183;47.404;8.500;2024-02-16T15:02:36;16.50;94.10
45435;DHT22;31183;47.404;8.500;2024-02-16T15:05:05;16.40;94.10
45435;DHT22;31183;47.404;8.500;2024-02-16T15:07:32;16.40;94.40
45435;DHT22;31183;47.404;8.500;2024-02-16T15:09:58;16.30;94.50
45435;DHT22;31183;47.404;8.500;2024-02-16T15:12:26;16.20;94.80
45435;DHT22;31183;47.404;8.500;2024-02-16T15:14:53;16.20;95.10
45435;DHT22;31183;47.404;8.500;2024-02-16T15:17:19;16.20;95.30
45435;DHT22;31183;47.404;8.500;2024-02-16T15:19:46;16.10;95.50
45435;DHT22;31183;47.404;8.500;2024-02-16T15:22:13;16.10;95.80
45435;DHT22;31183;47.404;8.500;2024-02-16T15:24:40;16.00;96.20
45435;DHT22;31183;47.404;8.500;2024-02-16T15:27:07;16.00;96.30
45435;DHT22;31183;47.404;8.500;2024-02-16T15:29:34;16.00;96.70
45435;DHT22;31183;47.404;8.500;2024-02-16T15:32:00;15.90;97.00
45435;DHT22;31183;47.404;8.500;2024-02-16T15:34:27;15.90;97.40
45435;DHT22;31183;47.404;8.500;2024-02-16T15:36:54;15.80;97.70